Time;durP1;ratioP1;P1;durP2;ratioP2;P2;SDS_P1;SDS_P2;PMS_P1;PMS_P2;Temp;Humidity;BMP_temperature;BMP_pressure;BME280_temperature;BME280_humidity;BME280_pressure;Samples;Min_cycle;Max_cycle;Signal;HPM_P1;HPM_P2
2021/09/04 00:00:18;;;;;;;17.30;12.10;;;;;;;14.37;100.00;96010.59;1040042;28;20433;-67
2021/09/04 00:00:49;;;;;;;15.43;10.70;;;;;;;14.37;100.00;96007.91;1042713;28;20517;-66
2021/09/04 00:01:19;;;;;;;15.83;11.20;;;;;;;14.38;100.00;96012.97;1048345;28;20006;-66
2021/09/04 00:01:49;;;;;;;19.10;11.70;;;;;;;14.38;100.00;96006.81;1044922;28;20021;-66
2021/09/04 00:02:20;;;;;;;15.07;11.27;;;;;;;14.37;100.00;96016.75;1044059;28;20017;-66
2021/09/04 00:02:50;;;;;;;16.80;11.27;;;;;;;14.41;100.00;96014.28;1040136;28;20463;-66
2021/09/04 00:03:21;;;;;;;15.80;11.17;;;;;;;14.39;100.00;96011.13;1031872;28;20353;-66
2021/09/04 00:03:51;;;;;;;17.47;11.27;;;;;;;14.38;100.00;96014.88;1031869;28;20437;-66
2021/09/04 00:04:22;;;;;;;17.03;11.80;;;;;;;14.37;100.00;96011.38;1036038;28;20088;-66
2021/09/04 00:04:52;;;;;;;16.50;11.70;;;;;;;14.32;100.00;96004.19;1040162;28;20091;-67
2021/09/04 00:05:22;;;;;;;18.50;11.80;;;;;;;14.37;100.00;96015.97;1044190;28;20029;-66
2021/09/04 00:05:53;;;;;;;18.00;12.27;;;;;;;14.38;100.00;96012.97;1044090;28;20456;-66
2021/09/04 00:06:23;;;;;;;19.30;12.13;;;;;;;14.41;100.00;96015.09;1040008;28;20025;-66
2021/09/04 00:06:54;;;;;;;19.73;12.10;;;;;;;14.37;100.00;96013.28;1035836;28;20018;-66
2021/09/04 00:07:27;;;;;;;17.67;11.53;;;;;;;14.40;100.00;96010.00;1039989;28;20018;-66
2021/09/04 00:07:58;;;;;;;17.42;11.70;;;;;;;14.40;100.00;96016.19;1040486;28;20057;-66
2021/09/04 00:08:28;;;;;;;18.23;12.80;;;;;;;14.39;100.00;96005.75;1039526;28;20478;-66
2021/09/04 00:09:00;;;;;;;17.30;12.93;;;;;;;14.42;100.00;96005.13;1040111;28;20057;-66
2021/09/04 00:09:31;;;;;;;16.33;11.45;;;;;;;14.43;100.00;96009.41;1031964;28;20030;-66
2021/09/04 00:10:01;;;;;;;16.30;11.77;;;;;;;14.45;100.00;96010.72;1032181;28;20018;-66
2021/09/04 00:10:31;;;;;;;17.07;12.07;;;;;;;14.47;100.00;96005.06;1035906;28;20022;-66
2021/09/04 00:11:02;;;;;;;16.63;10.93;;;;;;;14.47;100.00;96007.75;1036146;28;20095;-66
2021/09/04 00:11:32;;;;;;;16.80;11.90;;;;;;;14.44;100.00;96006.44;1040273;28;20025;-67
2021/09/04 00:12:03;;;;;;;22.03;12.63;;;;;;;14.39;100.00;96008.44;1040042;28;20029;-67
2021/09/04 00:12:34;;;;;;;21.27;12.43;;;;;;;14.35;100.00;96005.53;1040112;28;20104;-67
2021/09/04 00:13:04;;;;;;;18.50;11.83;;;;;;;14.39;100.00;96009.22;1040233;28;20397;-67
2021/09/04 00:13:35;;;;;;;21.53;12.30;;;;;;;14.41;100.00;96009.72;1044806;28;20025;-67
2021/09/04 00:14:05;;;;;;;17.93;12.13;;;;;;;14.42;100.00;96008.63;1044000;28;20021;-67
2021/09/04 00:14:35;;;;;;;22.50;12.17;;;;;;;14.43;100.00;96006.72;1044205;28;20032;-67
2021/09/04 00:15:06;;;;;;;16.37;11.40;;;;;;;14.42;100.00;96007.81;1040082;28;20032;-66
2021/09/04 00:15:36;;;;;;;18.03;11.87;;;;;;;14.38;100.00;96002.22;1040102;28;20414;-66
2021/09/04 00:16:07;;;;;;;19.37;11.70;;;;;;;14.42;100.00;96007.81;1035978;28;20101;-66
2021/09/04 00:16:37;;;;;;;19.70;12.40;;;;;;;14.38;100.00;96007.59;1028039;28;20376;-67
2021/09/04 00:17:08;;;;;;;18.33;12.43;;;;;;;14.38;100.00;96004.91;1031959;28;20507;-67
2021/09/04 00:17:39;;;;;;;17.37;11.80;;;;;;;14.34;100.00;96009.31;1032017;28;20026;-67
2021/09/04 00:18:09;;;;;;;15.60;11.38;;;;;;;14.39;100.00;96008.44;1036132;28;20022;-67
2021/09/04 00:18:40;;;;;;;16.60;11.40;;;;;;;14.38;100.00;96004.91;1041885;28;20033;-67
2021/09/04 00:19:10;;;;;;;16.77;11.50;;;;;;;14.36;100.00;96003.63;1044459;28;20116;-67
2021/09/04 00:19:41;;;;;;;17.43;12.23;;;;;;;14.34;100.00;96006.63;1044500;28;20044;-66
2021/09/04 00:20:11;;;;;;;16.60;11.07;;;;;;;14.35;100.00;96002.81;1044220;28;20371;-66
2021/09/04 00:20:42;;;;;;;22.00;12.13;;;;;;;14.36;100.00;96009.00;1044489;28;20044;-66
2021/09/04 00:21:12;;;;;;;19.13;12.33;;;;;;;14.32;100.00;96008.78;1044481;28;20048;-67
2021/09/04 00:21:43;;;;;;;18.47;11.33;;;;;;;14.32;100.00;96006.09;1044232;28;20535;-67
2021/09/04 00:22:13;;;;;;;16.20;11.23;;;;;;;14.29;100.00;96004.00;1044445;28;20071;-67
2021/09/04 00:22:44;;;;;;;17.73;12.10;;;;;;;14.27;100.00;96001.59;1043820;28;20491;-67
2021/09/04 00:23:14;;;;;;;16.03;11.07;;;;;;;14.20;100.00;95998.50;1041901;28;20025;-67
2021/09/04 00:23:44;;;;;;;19.13;11.60;;;;;;;14.17;100.00;95998.25;1040073;28;20491;-67
2021/09/04 00:24:15;;;;;;;29.83;11.50;;;;;;;14.13;100.00;96003.44;1040152;28;20029;-67
2021/09/04 00:24:45;;;;;;;16.43;10.93;;;;;;;14.08;100.00;96000.84;1043943;28;20032;-67
2021/09/04 00:25:16;;;;;;;17.47;11.57;;;;;;;14.03;100.00;96001.69;1040018;28;20080;-67
2021/09/04 00:25:46;;;;;;;18.20;11.77;;;;;;;13.95;100.00;96002.34;1035918;28;20025;-67
2021/09/04 00:26:17;;;;;;;16.80;11.13;;;;;;;13.88;100.00;96006.50;1037253;28;20033;-67
2021/09/04 00:26:47;;;;;;;16.73;11.33;;;;;;;13.87;100.00;96005.69;1039923;28;20033;-67
2021/09/04 00:27:18;;;;;;;19.93;12.03;;;;;;;13.82;100.00;96003.09;1040043;28;20053;-67
2021/09/04 00:27:48;;;;;;;16.70;11.07;;;;;;;13.79;100.00;96001.75;1044210;28;20367;-67
2021/09/04 00:28:19;;;;;;;16.93;11.47;;;;;;;13.78;100.00;96010.13;1035927;28;20026;-67
2021/09/04 00:28:49;;;;;;;18.00;11.73;;;;;;;13.80;100.00;96007.94;1027886;28;20030;-67
2021/09/04 00:29:20;;;;;;;21.03;12.30;;;;;;;13.78;100.00;96000.19;1031326;28;20026;-67
2021/09/04 00:29:50;;;;;;;18.37;11.47;;;;;;;13.78;100.00;96008.22;1027668;28;20091;-67
2021/09/04 00:30:20;;;;;;;16.47;12.07;;;;;;;13.75;100.00;96002.63;1027968;28;20093;-67
2021/09/04 00:30:51;;;;;;;19.50;11.70;;;;;;;13.71;100.00;96007.78;1027776;28;20077;-67
2021/09/04 00:31:22;;;;;;;21.50;12.27;;;;;;;13.70;100.00;96003.50;1027850;28;20029;-67
2021/09/04 00:31:52;;;;;;;16.67;11.43;;;;;;;13.69;100.00;96007.28;1027588;28;20041;-67
2021/09/04 00:32:23;;;;;;;16.37;11.33;;;;;;;13.68;100.00;96002.19;1023814;28;20034;-67
2021/09/04 00:32:53;;;;;;;18.97;11.93;;;;;;;13.66;100.00;96001.66;1031985;28;20053;-67
2021/09/04 00:33:23;;;;;;;16.43;11.90;;;;;;;13.65;100.00;96003.56;1035966;28;20026;-67
2021/09/04 00:33:54;;;;;;;19.90;11.87;;;;;;;13.64;100.00;96009.22;1035879;28;20026;-67
2021/09/04 00:34:24;;;;;;;17.37;11.33;;;;;;;13.63;100.00;96007.63;1038763;28;20021;-67
2021/09/04 00:34:55;;;;;;;15.93;11.07;;;;;;;13.61;100.00;96001.75;1039996;28;20029;-67
2021/09/04 00:35:25;;;;;;;16.70;11.47;;;;;;;13.58;100.00;96003.13;1035936;28;20033;-67
2021/09/04 00:35:56;;;;;;;15.07;11.60;;;;;;;13.59;100.00;96003.94;1036050;28;20286;-67
2021/09/04 00:36:26;;;;;;;16.70;10.73;;;;;;;13.59;100.00;96009.28;1036024;28;20022;-67
2021/09/04 00:36:56;;;;;;;20.27;12.50;;;;;;;13.59;100.00;96003.94;1043009;28;20517;-67
2021/09/04 00:37:27;;;;;;;17.43;11.90;;;;;;;13.59;100.00;96004.72;1038412;28;20045;-67
2021/09/04 00:37:57;;;;;;;20.30;11.57;;;;;;;13.58;100.00;95999.66;1040083;28;20390;-67
2021/09/04 00:38:28;;;;;;;16.23;11.83;;;;;;;13.58;100.00;96000.44;1035715;28;20471;-67
2021/09/04 00:38:58;;;;;;;18.27;11.73;;;;;;;13.57;100.00;96006.91;1035968;28;20022;-67
2021/09/04 00:39:28;;;;;;;16.33;12.00;;;;;;;13.58;100.00;96010.38;1036438;28;20018;-67
2021/09/04 00:39:59;;;;;;;17.90;11.67;;;;;;;13.52;100.00;95998.91;1040111;28;20516;-67
2021/09/04 00:40:29;;;;;;;15.33;10.73;;;;;;;13.52;100.00;96002.41;1043971;28;20390;-67
2021/09/04 00:41:00;;;;;;;17.00;11.87;;;;;;;13.52;100.00;96001.59;1040066;28;20037;-67
2021/09/04 00:41:34;;;;;;;16.70;11.57;;;;;;;13.52;100.00;96010.44;1044054;28;20469;-67
2021/09/04 00:42:05;;;;;;;16.92;11.77;;;;;;;13.48;100.00;96001.38;1044039;28;20027;-67
2021/09/04 00:42:35;;;;;;;19.80;12.47;;;;;;;13.45;100.00;95995.78;1040513;28;20561;-67
2021/09/04 00:43:05;;;;;;;17.23;11.83;;;;;;;13.43;100.00;96006.00;1039968;28;20529;-67
2021/09/04 00:43:36;;;;;;;19.33;12.50;;;;;;;13.39;100.00;96005.78;1035891;28;20025;-67
2021/09/04 00:44:06;;;;;;;17.73;12.57;;;;;;;13.37;100.00;96007.97;1030840;28;20045;-67
2021/09/04 00:44:37;;;;;;;19.43;12.47;;;;;;;13.35;100.00;96006.63;1027940;28;20022;-67
2021/09/04 00:45:07;;;;;;;18.00;12.10;;;;;;;13.34;100.00;96005.84;1031998;28;20014;-67
2021/09/04 00:45:38;;;;;;;24.07;13.00;;;;;;;13.32;100.00;96002.66;1035928;28;20559;-67
2021/09/04 00:46:09;;;;;;;17.27;12.17;;;;;;;13.30;100.00;95998.63;1040026;28;20482;-67
2021/09/04 00:46:39;;;;;;;18.75;12.40;;;;;;;13.25;100.00;96002.19;1036070;28;20022;-67
2021/09/04 00:47:10;;;;;;;17.80;11.77;;;;;;;13.19;100.00;96006.78;1035975;28;20026;-67
2021/09/04 00:47:59;;;;;;;18.80;12.77;;;;;;;13.16;100.00;96004.69;1035859;28;20489;-67
2021/09/04 00:48:29;;;;;;;18.33;12.32;;;;;;;13.15;100.00;96002.25;1038571;28;20503;-67
2021/09/04 00:48:59;;;;;;;17.73;11.80;;;;;;;13.12;100.00;96006.34;1040162;28;20025;-67
2021/09/04 00:49:31;;;;;;;18.10;12.13;;;;;;;13.11;100.00;96001.25;1044288;28;20017;-67
2021/09/04 00:50:01;;;;;;;19.55;12.30;;;;;;;13.08;100.00;96004.50;1044062;28;20417;-67
2021/09/04 00:50:33;;;;;;;20.07;12.37;;;;;;;13.08;100.00;96004.50;1035852;28;20047;-67
2021/09/04 00:51:03;;;;;;;18.40;12.68;;;;;;;13.08;100.00;96004.50;1035686;28;20037;-67
2021/09/04 00:51:34;;;;;;;20.07;12.73;;;;;;;13.10;100.00;96003.13;1032045;28;20069;-67
2021/09/04 00:52:05;;;;;;;16.23;11.97;;;;;;;13.11;100.00;96001.25;1036043;28;20464;-67
2021/09/04 00:52:35;;;;;;;18.20;12.45;;;;;;;13.12;100.00;96003.66;1039995;28;20025;-67
2021/09/04 00:53:06;;;;;;;22.00;12.37;;;;;;;13.17;100.00;96005.47;1035796;28;20034;-67
2021/09/04 00:53:36;;;;;;;17.10;11.60;;;;;;;13.18;100.00;96001.69;1031774;28;20011;-68
2021/09/04 00:54:07;;;;;;;17.80;11.67;;;;;;;13.23;100.00;96009.72;1031868;28;20022;-67
2021/09/04 00:54:37;;;;;;;15.97;11.30;;;;;;;13.25;100.00;95997.59;1031883;28;20399;-67
2021/09/04 00:55:08;;;;;;;18.77;11.73;;;;;;;13.26;100.00;96012.66;1029283;28;20019;-67
2021/09/04 00:55:38;;;;;;;18.33;12.30;;;;;;;13.27;100.00;96006.19;1027716;28;20412;-67
2021/09/04 00:56:11;;;;;;;19.30;11.20;;;;;;;13.34;100.00;96010.41;1024244;28;20031;-67
2021/09/04 00:56:42;;;;;;;17.42;11.25;;;;;;;13.37;100.00;96005.28;1027755;28;20019;-67
2021/09/04 00:57:12;;;;;;;15.93;11.93;;;;;;;13.37;100.00;96013.31;1032143;28;20033;-67
2021/09/04 00:57:43;;;;;;;15.77;11.53;;;;;;;13.42;100.00;96017.84;1037282;28;20097;-67
2021/09/04 00:58:13;;;;;;;16.40;11.70;;;;;;;13.45;100.00;96007.31;1035932;28;20437;-67
2021/09/04 00:58:44;;;;;;;15.97;11.97;;;;;;;13.42;100.00;96010.56;1032017;28;20148;-67
2021/09/04 00:59:14;;;;;;;21.23;11.67;;;;;;;13.44;100.00;96003.03;1035891;28;20029;-67
2021/09/04 00:59:44;;;;;;;16.80;11.57;;;;;;;13.46;100.00;96002.72;1035995;28;20013;-67
2021/09/04 01:00:15;;;;;;;15.97;11.60;;;;;;;13.47;100.00;96005.16;1033225;28;20384;-67
2021/09/04 01:00:49;;;;;;;16.00;11.07;;;;;;;13.52;100.00;96006.97;1040006;28;20485;-67
2021/09/04 01:01:20;;;;;;;17.52;10.68;;;;;;;13.53;100.00;96009.34;1039943;28;20055;-67
2021/09/04 01:01:50;;;;;;;16.23;11.23;;;;;;;13.53;100.00;96001.31;1040324;28;20375;-67
2021/09/04 01:02:20;;;;;;;14.77;10.93;;;;;;;13.52;100.00;95999.72;1044055;28;20122;-67
2021/09/04 01:02:51;;;;;;;17.23;11.00;;;;;;;13.56;100.00;96007.19;1044110;28;20520;-67
2021/09/04 01:03:22;;;;;;;16.33;11.63;;;;;;;13.59;100.00;96004.72;1044351;28;20068;-67
2021/09/04 01:03:52;;;;;;;16.83;11.43;;;;;;;13.59;100.00;96002.03;1039971;28;20438;-67
2021/09/04 01:04:23;;;;;;;18.83;11.37;;;;;;;13.57;100.00;96003.44;1031397;28;20072;-67
2021/09/04 01:04:53;;;;;;;15.83;10.87;;;;;;;13.57;100.00;96004.22;1023733;29;20086;-67
2021/09/04 01:05:23;;;;;;;21.70;12.73;;;;;;;13.56;100.00;96007.19;1023923;28;20081;-67
2021/09/04 01:05:54;;;;;;;21.50;11.77;;;;;;;13.51;100.00;96006.19;1027716;28;20093;-67
2021/09/04 01:06:24;;;;;;;16.30;11.60;;;;;;;13.51;100.00;96006.19;1035954;28;20466;-67
2021/09/04 01:06:55;;;;;;;16.33;10.77;;;;;;;13.53;100.00;96001.31;1039925;28;20494;-67
2021/09/04 01:07:26;;;;;;;20.13;11.25;;;;;;;13.53;100.00;95995.94;1031815;28;20117;-67
2021/09/04 01:07:56;;;;;;;16.70;12.17;;;;;;;13.54;100.00;95999.41;1027655;28;20039;-67
2021/09/04 01:08:27;;;;;;;16.23;11.07;;;;;;;13.57;100.00;96000.75;1027821;28;20049;-67
2021/09/04 01:08:57;;;;;;;15.77;11.90;;;;;;;13.60;100.00;96000.16;1027779;28;20026;-67
2021/09/04 01:09:27;;;;;;;19.63;11.33;;;;;;;13.61;100.00;96004.44;1035963;28;20073;-67
2021/09/04 01:09:58;;;;;;;16.57;11.60;;;;;;;13.60;100.00;96000.16;1044093;28;20407;-67
2021/09/04 01:10:28;;;;;;;14.07;10.80;;;;;;;13.57;100.00;96006.13;1043738;28;20114;-67
2021/09/04 01:10:59;;;;;;;16.37;11.40;;;;;;;13.57;100.00;95998.06;1044038;28;20021;-67
2021/09/04 01:11:29;;;;;;;17.07;11.33;;;;;;;13.57;100.00;96001.53;1039939;28;20034;-67
2021/09/04 01:11:59;;;;;;;18.07;12.00;;;;;;;13.56;100.00;96007.19;1035715;28;20040;-67
2021/09/04 01:12:31;;;;;;;17.50;11.50;;;;;;;13.54;100.00;96004.78;1031773;28;20034;-67
2021/09/04 01:13:02;;;;;;;17.30;11.07;;;;;;;13.56;100.00;96002.59;1032044;28;20033;-67
2021/09/04 01:13:33;;;;;;;16.35;10.88;;;;;;;13.60;100.00;96000.16;1035602;28;20040;-67
2021/09/04 01:14:03;;;;;;;16.80;12.00;;;;;;;13.60;100.00;96002.84;1035878;28;20030;-67
2021/09/04 01:14:34;;;;;;;15.60;10.70;;;;;;;13.60;100.00;96000.16;1038744;28;20398;-67
2021/09/04 01:15:05;;;;;;;17.37;11.27;;;;;;;13.58;100.00;96005.03;1036578;28;20026;-67
2021/09/04 01:15:38;;;;;;;19.95;11.48;;;;;;;13.53;100.00;96006.69;1040285;28;20044;-66
2021/09/04 01:16:09;;;;;;;15.25;10.88;;;;;;;13.57;100.00;96006.13;1036654;28;20026;-67
2021/09/04 01:16:41;;;;;;;16.73;11.40;;;;;;;13.61;100.00;96009.78;1037313;28;20034;-67
2021/09/04 01:17:11;;;;;;;16.67;11.25;;;;;;;13.61;100.00;96009.78;1040745;28;20071;-67
2021/09/04 01:17:41;;;;;;;16.67;11.30;;;;;;;13.62;100.00;96001.47;1040764;28;20158;-67
2021/09/04 01:18:12;;;;;;;14.97;11.47;;;;;;;13.63;100.00;96007.63;1040747;28;20021;-67
2021/09/04 01:18:42;;;;;;;14.87;11.43;;;;;;;13.64;100.00;96004.66;1040714;28;20037;-67
2021/09/04 01:19:13;;;;;;;15.83;11.20;;;;;;;13.64;100.00;96007.34;1036650;28;20037;-67
2021/09/04 01:19:43;;;;;;;16.73;10.80;;;;;;;13.66;100.00;96007.03;1040818;28;20048;-67
2021/09/04 01:20:14;;;;;;;15.00;10.57;;;;;;;13.68;100.00;96008.38;1040973;28;20418;-67
2021/09/04 01:20:44;;;;;;;14.40;11.10;;;;;;;13.68;100.00;96007.56;1044705;28;20120;-67
2021/09/04 01:21:15;;;;;;;18.57;11.40;;;;;;;13.69;100.00;96015.34;1044598;28;20033;-67
2021/09/04 01:21:45;;;;;;;17.10;12.27;;;;;;;13.71;100.00;96006.97;1044621;28;20074;-67
2021/09/04 01:22:15;;;;;;;14.33;10.77;;;;;;;13.70;100.00;96003.50;1048985;28;20024;-67
2021/09/04 01:22:46;;;;;;;17.83;11.60;;;;;;;13.72;100.00;96004.03;1048962;28;20040;-67
2021/09/04 01:23:16;;;;;;;17.37;11.17;;;;;;;13.71;100.00;96005.09;1048951;28;20033;-67
2021/09/04 01:23:47;;;;;;;17.53;10.10;;;;;;;13.74;100.00;95998.34;1049022;28;20024;-67
2021/09/04 01:24:17;;;;;;;15.70;10.60;;;;;;;13.74;100.00;95995.66;1036357;28;20417;-67
2021/09/04 01:24:49;;;;;;;14.90;11.00;;;;;;;13.74;100.00;95993.78;1040751;28;20481;-67
2021/09/04 01:25:23;;;;;;;15.02;10.73;;;;;;;13.72;100.00;96003.22;1036372;28;20076;-67
2021/09/04 01:25:54;;;;;;;14.93;10.23;;;;;;;13.69;100.00;95990.38;1034880;28;20372;-67
2021/09/04 01:26:24;;;;;;;15.87;9.93;;;;;;;13.66;100.00;95997.09;1042029;28;20104;-67
2021/09/04 01:26:55;;;;;;;13.47;9.93;;;;;;;13.67;100.00;95989.88;1037248;28;20030;-66
2021/09/04 01:27:25;;;;;;;15.00;10.13;;;;;;;13.61;100.00;95989.09;1040914;28;20025;-66
2021/09/04 01:27:56;;;;;;;15.57;10.90;;;;;;;13.62;100.00;95990.72;1044893;28;20293;-66
2021/09/04 01:28:27;;;;;;;15.88;10.30;;;;;;;13.62;100.00;95990.72;1036773;28;20026;-66
2021/09/04 01:28:57;;;;;;;15.57;10.30;;;;;;;13.62;100.00;95988.03;1040709;28;20371;-67
2021/09/04 01:29:27;;;;;;;14.63;10.50;;;;;;;13.60;100.00;95986.72;1036674;28;20577;-66
2021/09/04 01:29:58;;;;;;;14.33;10.07;;;;;;;13.56;100.00;95991.06;1032625;28;20034;-66
2021/09/04 01:30:28;;;;;;;14.77;10.30;;;;;;;13.53;100.00;95987.09;1036409;28;20483;-66
2021/09/04 01:30:59;;;;;;;14.53;9.83;;;;;;;13.52;100.00;95980.91;1032674;28;20035;-66
2021/09/04 01:31:29;;;;;;;14.80;10.30;;;;;;;13.53;100.00;95989.78;1032433;28;20141;-67
2021/09/04 01:32:00;;;;;;;16.17;9.93;;;;;;;13.54;100.00;95983.31;1040490;28;20386;-67
2021/09/04 01:32:30;;;;;;;14.80;10.30;;;;;;;13.52;100.00;95988.19;1036498;28;20034;-67
2021/09/04 01:33:01;;;;;;;16.20;9.40;;;;;;;13.53;100.00;95984.41;1032618;28;20034;-67
2021/09/04 01:33:31;;;;;;;14.13;9.63;;;;;;;13.53;100.00;95981.72;1032566;28;20022;-67
2021/09/04 01:34:02;;;;;;;15.73;9.80;;;;;;;13.51;100.00;95984.69;1032613;28;20065;-67
2021/09/04 01:34:33;;;;;;;14.48;9.43;;;;;;;13.52;100.00;95988.97;1040776;28;20433;-67
2021/09/04 01:35:07;;;;;;;15.40;9.23;;;;;;;13.54;100.00;95986.00;1042195;28;20029;-66
2021/09/04 01:35:38;;;;;;;17.65;9.82;;;;;;;13.55;100.00;95989.47;1040513;28;20030;-66
2021/09/04 01:36:09;;;;;;;14.57;8.93;;;;;;;13.52;100.00;95982.81;1040447;28;20029;-66
2021/09/04 01:36:39;;;;;;;16.05;9.85;;;;;;;13.51;100.00;95982.00;1041185;28;20041;-66
2021/09/04 01:37:10;;;;;;;16.53;9.57;;;;;;;13.55;100.00;95984.91;1044820;28;20041;-66
2021/09/04 01:37:40;;;;;;;15.53;9.27;;;;;;;13.44;100.00;95978.88;1044488;28;20466;-66
2021/09/04 01:38:11;;;;;;;14.17;9.20;;;;;;;13.47;100.00;95978.31;1044784;28;20079;-67
2021/09/04 01:38:41;;;;;;;14.83;9.00;;;;;;;13.51;100.00;95984.69;1044652;28;20047;-67
2021/09/04 01:39:12;;;;;;;13.27;9.17;;;;;;;13.52;100.00;95977.44;1036615;28;20088;-66
2021/09/04 01:39:42;;;;;;;16.10;9.77;;;;;;;13.48;100.00;95976.41;1032499;28;20034;-67
2021/09/04 01:40:13;;;;;;;16.50;10.20;;;;;;;13.42;100.00;95974.88;1032594;28;20030;-66
2021/09/04 01:40:43;;;;;;;14.63;10.40;;;;;;;13.40;100.00;95974.34;1032379;28;20026;-66
2021/09/04 01:41:13;;;;;;;15.47;10.47;;;;;;;13.39;100.00;95981.63;1036722;28;20038;-67
2021/09/04 01:41:44;;;;;;;15.60;10.30;;;;;;;13.39;100.00;95978.13;1040919;28;20151;-67
2021/09/04 01:42:14;;;;;;;15.33;10.10;;;;;;;13.40;100.00;95983.22;1040997;28;20390;-67
2021/09/04 01:42:46;;;;;;;12.80;9.73;;;;;;;13.41;100.00;95978.63;1040585;28;20355;-67
2021/09/04 01:43:16;;;;;;;16.55;10.23;;;;;;;13.42;100.00;95973.00;1039623;28;20127;-67
2021/09/04 01:43:46;;;;;;;16.60;10.43;;;;;;;13.39;100.00;95984.28;1032251;28;20100;-66
2021/09/04 01:44:17;;;;;;;13.50;9.50;;;;;;;13.43;100.00;95979.16;1028486;28;20026;-66
2021/09/04 01:44:47;;;;;;;15.10;9.83;;;;;;;13.38;100.00;95973.84;1028585;28;20015;-67
2021/09/04 01:45:18;;;;;;;15.17;9.67;;;;;;;13.40;100.00;95977.03;1032636;28;20010;-67
2021/09/04 01:45:48;;;;;;;14.93;9.57;;;;;;;13.38;100.00;95979.22;1040623;28;20076;-67
2021/09/04 01:46:19;;;;;;;15.73;8.77;;;;;;;13.42;100.00;95970.31;1044679;28;20009;-66
2021/09/04 01:46:49;;;;;;;14.03;9.23;;;;;;;13.40;100.00;95975.16;1036504;28;20010;-66
2021/09/04 01:47:20;;;;;;;15.40;9.30;;;;;;;13.40;100.00;95977.84;1032479;28;20018;-67
2021/09/04 01:47:50;;;;;;;12.13;8.93;;;;;;;13.39;100.00;95976.25;1028444;28;20066;-67
2021/09/04 01:48:21;;;;;;;14.37;10.03;;;;;;;13.37;100.00;95981.13;1032478;28;20060;-67
2021/09/04 01:48:51;;;;;;;15.87;9.13;;;;;;;13.42;100.00;95975.69;1037664;28;20017;-67
2021/09/04 01:49:21;;;;;;;15.20;9.93;;;;;;;13.44;100.00;95970.81;1032422;28;20022;-67
2021/09/04 01:49:53;;;;;;;14.17;9.27;;;;;;;13.46;100.00;95976.72;1032562;28;20015;-67
2021/09/04 01:50:24;;;;;;;13.60;9.15;;;;;;;13.44;100.00;95975.38;1035574;28;20084;-66
2021/09/04 01:50:54;;;;;;;14.73;9.83;;;;;;;13.46;100.00;95974.03;1032710;28;20023;-66
2021/09/04 01:51:24;;;;;;;12.93;9.43;;;;;;;13.43;100.00;95976.47;1032279;28;20538;-66
2021/09/04 01:51:55;;;;;;;15.77;9.83;;;;;;;13.39;100.00;95973.56;1032379;28;20026;-67
2021/09/04 01:52:25;;;;;;;14.80;9.57;;;;;;;13.38;100.00;95969.28;1032472;28;20015;-66
2021/09/04 01:52:56;;;;;;;14.33;9.83;;;;;;;13.43;100.00;95971.91;1032530;28;20093;-66
2021/09/04 01:53:26;;;;;;;13.50;9.00;;;;;;;13.44;100.00;95973.50;1028519;28;20023;-66
2021/09/04 01:53:57;;;;;;;13.13;8.67;;;;;;;13.42;100.00;95970.31;1024508;28;20019;-67
2021/09/04 01:54:27;;;;;;;14.23;9.00;;;;;;;13.39;100.00;95976.25;1024331;28;20019;-66
2021/09/04 01:54:58;;;;;;;14.20;9.50;;;;;;;13.43;100.00;95974.59;1024337;28;20019;-66
2021/09/04 01:55:29;;;;;;;13.37;9.03;;;;;;;13.39;100.00;95970.88;1028748;28;20022;-66
2021/09/04 01:56:00;;;;;;;15.17;9.63;;;;;;;13.39;100.00;95973.56;1028599;28;20251;-67
2021/09/04 01:56:30;;;;;;;13.38;9.43;;;;;;;13.36;100.00;95971.47;1032239;28;20041;-67
2021/09/04 01:57:01;;;;;;;13.20;8.87;;;;;;;13.34;100.00;95973.63;1032799;28;20109;-66
2021/09/04 01:57:31;;;;;;;13.40;9.60;;;;;;;13.34;100.00;95970.16;1036634;28;20528;-67
2021/09/04 01:58:02;;;;;;;12.50;8.63;;;;;;;13.32;100.00;95975.00;1040659;28;20009;-66
2021/09/04 01:58:32;;;;;;;13.13;9.13;;;;;;;13.29;100.00;95976.38;1032467;28;20472;-66
2021/09/04 01:59:03;;;;;;;14.93;9.50;;;;;;;13.28;100.00;95972.09;1032530;28;20661;-66
2021/09/04 01:59:33;;;;;;;12.33;8.93;;;;;;;13.26;100.00;95972.38;1036519;28;20033;-67
2021/09/04 02:00:09;;;;;;;14.73;9.20;;;;;;;13.24;100.00;95969.19;1032722;28;20014;-67
2021/09/04 02:00:39;;;;;;;15.30;9.30;;;;;;;13.20;100.00;95970.78;1043306;28;20075;-67
2021/09/04 02:01:09;;;;;;;15.00;9.43;;;;;;;13.21;100.00;95971.63;1040566;28;20021;-67
2021/09/04 02:01:40;;;;;;;15.17;9.80;;;;;;;13.23;100.00;95972.16;1037208;28;20014;-67
2021/09/04 02:02:10;;;;;;;17.67;9.33;;;;;;;13.16;100.00;95969.78;1040652;28;20414;-66
2021/09/04 02:02:41;;;;;;;12.83;9.23;;;;;;;13.16;100.00;95977.06;1040635;28;20064;-66
2021/09/04 02:03:11;;;;;;;14.10;8.93;;;;;;;13.14;100.00;95969.25;1036494;28;20336;-66
2021/09/04 02:03:42;;;;;;;14.23;9.90;;;;;;;13.08;100.00;95973.09;1036390;28;20502;-66
2021/09/04 02:04:12;;;;;;;13.20;8.87;;;;;;;13.09;100.00;95980.06;1036527;28;20029;-66
2021/09/04 02:04:43;;;;;;;15.47;10.00;;;;;;;13.10;100.00;95972.81;1036560;28;20029;-66
2021/09/04 02:05:13;;;;;;;15.30;9.90;;;;;;;13.07;100.00;95976.88;1044712;28;20028;-67
2021/09/04 02:05:45;;;;;;;13.03;9.93;;;;;;;13.07;100.00;95971.50;1044608;28;20020;-66
2021/09/04 02:06:15;;;;;;;14.27;9.95;;;;;;;13.05;100.00;95973.69;1044691;28;20029;-66
2021/09/04 02:06:45;;;;;;;12.33;9.63;;;;;;;13.05;100.00;95971.00;1044443;28;20025;-66
2021/09/04 02:07:16;;;;;;;14.43;10.60;;;;;;;13.05;100.00;95971.00;1044328;28;20017;-66
2021/09/04 02:07:46;;;;;;;17.83;10.83;;;;;;;13.06;100.00;95964.53;1044958;28;20036;-66
2021/09/04 02:08:17;;;;;;;13.77;9.97;;;;;;;13.04;100.00;95969.38;1044712;28;20028;-66
2021/09/04 02:08:47;;;;;;;15.63;11.10;;;;;;;13.03;100.00;95967.78;1044689;28;20036;-67
2021/09/04 02:09:17;;;;;;;15.07;11.00;;;;;;;12.98;100.00;95962.47;1037174;28;20025;-67
2021/09/04 02:09:48;;;;;;;15.60;10.53;;;;;;;12.96;100.00;95968.16;1036539;28;20022;-67
2021/09/04 02:10:18;;;;;;;18.03;11.00;;;;;;;12.96;100.00;95962.78;1040538;28;20018;-67
2021/09/04 02:10:49;;;;;;;15.53;10.50;;;;;;;12.96;100.00;95970.03;1040531;28;20021;-67
2021/09/04 02:11:19;;;;;;;14.50;10.00;;;;;;;12.92;100.00;95963.63;1036364;28;20037;-67
2021/09/04 02:11:50;;;;;;;14.50;10.40;;;;;;;12.93;100.00;95967.91;1036397;28;20510;-66
2021/09/04 02:12:20;;;;;;;14.23;10.73;;;;;;;12.91;100.00;95965.50;1028362;28;20074;-67
2021/09/04 02:12:50;;;;;;;14.83;10.13;;;;;;;12.90;100.00;95957.75;1028445;28;20090;-67
2021/09/04 02:13:21;;;;;;;15.53;10.90;;;;;;;12.87;100.00;95961.78;1032338;28;20038;-66
2021/09/04 02:13:51;;;;;;;15.03;9.90;;;;;;;12.85;100.00;95966.66;1028499;28;20034;-66
2021/09/04 02:14:22;;;;;;;15.17;10.80;;;;;;;12.84;100.00;95957.00;1032483;28;20029;-67
2021/09/04 02:14:52;;;;;;;16.37;11.17;;;;;;;12.82;100.00;95961.06;1032432;28;20038;-67
2021/09/04 02:15:22;;;;;;;14.30;10.23;;;;;;;12.81;100.00;95960.25;1032522;28;20105;-66
2021/09/04 02:15:53;;;;;;;15.03;10.73;;;;;;;12.79;100.00;95967.78;1032501;28;20054;-66
2021/09/04 02:16:23;;;;;;;17.33;10.80;;;;;;;12.78;100.00;95968.88;1036494;28;20033;-66
2021/09/04 02:16:54;;;;;;;15.27;10.93;;;;;;;12.78;100.00;95971.53;1040572;28;20417;-66
2021/09/04 02:17:24;;;;;;;16.70;11.53;;;;;;;12.77;100.00;95967.28;1036083;28;20471;-66
2021/09/04 02:17:55;;;;;;;16.77;10.37;;;;;;;12.77;100.00;95964.59;1036541;28;20385;-67
2021/09/04 02:18:27;;;;;;;16.73;11.47;;;;;;;12.77;100.00;95964.59;1040608;28;20032;-67
2021/09/04 02:18:58;;;;;;;14.80;10.30;;;;;;;12.74;100.00;95965.97;1036781;28;20057;-67
2021/09/04 02:19:28;;;;;;;16.37;10.60;;;;;;;12.72;100.00;95967.31;1040515;28;20041;-67
2021/09/04 02:19:58;;;;;;;19.23;10.80;;;;;;;12.70;100.00;95964.94;1040450;28;20052;-67